Terminal Aerodrome Forecast
Issued by NWS

Home | Current Version | Previous Version | Text Only | Print | Product List | Glossary On
Versions: 1 2 3 4 5 6 7 8 9 10 11 12 13 14 15 16 17 18 19 20 21 22 23 24 25 26 27 28
000
FTUS43 KDTX 171700
TAFPTK
TAF
KPTK 171724Z 1718/1818 26009KT P6SM SCT250
     FM172200 29008KT P6SM FEW050 BKN250
     FM180200 VRB03KT P6SM FEW050
     FM181100 03006KT 6SM BR OVC008
     FM181500 35007KT P6SM FEW015 BKN030=

USA.gov is the U.S. government's official web portal to all federal, state and local government web resources and services.